Terminal Aerodrome Forecast
Issued by NWS

Current Version | Previous Version | Text Only | Print | Product List | Glossary On
Versions: 1 2 3 4 5 6 7 8 9 10 11 12 13 14 15 16 17 18 19 20 21 22 23 24 25 26 27 28 29 30
998
FTUS41 KOKX 281720
TAFHPN
TAF
KHPN 281720Z 2818/2918 VRB05KT P6SM SCT035 BKN250
     FM281900 13007KT P6SM SCT040 BKN250
     FM290100 VRB05KT P6SM SCT040 BKN120
     FM290600 VRB05KT 6SM -RA BR BKN040 OVC100
     FM290900 02010G18KT 6SM -RA BR BKN030 OVC100
     FM291300 03014G23KT P6SM BKN030 OVC120
     FM291600 04015G24KT P6SM SCT030 OVC200
      AMD NOT SKED=

USA.gov is the U.S. government's official web portal to all federal, state and local government web resources and services.